createdAt,value
2019-03-06T00:02:10.715Z,0.20
2019-03-06T00:04:40.731Z,0.20
2019-03-06T00:07:10.795Z,1.00
2019-03-06T00:09:40.815Z,1.00
2019-03-06T00:12:10.848Z,1.00
2019-03-06T00:14:41.058Z,0.80
2019-03-06T00:17:11.153Z,0.40
2019-03-06T00:19:41.150Z,1.00
2019-03-06T00:22:11.302Z,1.80
2019-03-06T00:24:41.359Z,0.60
2019-03-06T00:27:11.385Z,0.00
2019-03-06T00:29:41.365Z,2.60
2019-03-06T00:32:11.365Z,0.00
2019-03-06T00:34:41.386Z,0.20
2019-03-06T00:37:11.381Z,0.00
2019-03-06T00:39:42.994Z,0.80
2019-03-06T00:42:12.984Z,1.00
2019-03-06T00:44:43.023Z,0.00
2019-03-06T00:47:13.030Z,0.40
2019-03-06T00:49:44.117Z,0.60
2019-03-06T00:52:15.119Z,0.00
2019-03-06T00:54:47.319Z,1.00
2019-03-06T00:57:17.348Z,1.00
2019-03-06T00:59:47.840Z,0.40
2019-03-06T01:02:18.248Z,0.00
2019-03-06T01:04:48.286Z,1.00
2019-03-06T01:07:18.331Z,1.00
2019-03-06T01:09:48.392Z,1.40
2019-03-06T01:12:18.428Z,0.00
2019-03-06T01:14:48.595Z,0.00
2019-03-06T01:17:19.640Z,0.00
2019-03-06T01:19:50.805Z,0.20
2019-03-06T01:22:21.106Z,2.60
2019-03-06T01:24:51.354Z,0.40
2019-03-06T01:27:21.388Z,1.40
2019-03-06T01:29:51.458Z,0.20
2019-03-06T01:32:21.700Z,1.00
2019-03-06T01:34:58.946Z,0.00
2019-03-06T01:37:36.373Z,0.00
2019-03-06T01:40:27.141Z,0.00
2019-03-06T01:42:58.691Z,0.00
2019-03-06T01:45:28.767Z,0.00
2019-03-06T01:47:58.790Z,0.00
2019-03-06T01:50:29.239Z,0.00
2019-03-06T01:52:59.264Z,0.20
2019-03-06T01:55:29.444Z,0.60
2019-03-06T01:57:59.479Z,0.00
2019-03-06T02:00:29.739Z,1.00
2019-03-06T02:02:59.757Z,1.00
2019-03-06T02:05:30.847Z,1.00
2019-03-06T02:08:01.160Z,0.20
2019-03-06T02:10:32.678Z,0.00
2019-03-06T02:13:02.814Z,1.00
2019-03-06T02:15:32.862Z,1.80
2019-03-06T02:18:02.976Z,0.60
2019-03-06T02:20:33.113Z,0.20
2019-03-06T02:23:03.131Z,0.80
2019-03-06T02:25:33.189Z,1.00
2019-03-06T02:28:03.207Z,1.00
2019-03-06T02:30:33.547Z,1.00
2019-03-06T02:33:03.580Z,0.00
2019-03-06T02:35:33.630Z,2.40
2019-03-06T02:38:03.675Z,0.40
2019-03-06T02:40:33.761Z,0.00
2019-03-06T02:43:03.788Z,0.00
2019-03-06T02:45:33.853Z,0.00
2019-03-06T02:48:03.861Z,0.20
2019-03-06T02:50:34.000Z,0.40
2019-03-06T02:53:04.006Z,1.00
2019-03-06T02:55:34.139Z,0.00
2019-03-06T02:58:05.821Z,0.00
2019-03-06T03:00:37.864Z,1.00
2019-03-06T03:03:09.477Z,0.00
2019-03-06T03:05:41.203Z,0.20
2019-03-06T03:08:11.232Z,0.20
2019-03-06T03:10:41.282Z,0.00
2019-03-06T03:13:11.320Z,0.00
2019-03-06T03:15:41.708Z,0.00
2019-03-06T03:18:11.733Z,0.00
2019-03-06T03:20:41.811Z,1.80
2019-03-06T03:23:12.136Z,0.00
2019-03-06T03:25:42.220Z,1.00
2019-03-06T03:28:12.261Z,0.40
2019-03-06T03:30:42.394Z,0.40
2019-03-06T03:33:12.754Z,0.60
2019-03-06T03:35:43.349Z,0.00
2019-03-06T03:38:13.449Z,0.00
2019-03-06T03:40:43.554Z,0.00
2019-03-06T03:43:13.563Z,0.60
2019-03-06T03:45:43.654Z,1.00
2019-03-06T03:48:13.677Z,1.00
2019-03-06T03:50:43.724Z,1.00
2019-03-06T03:53:13.748Z,1.20
2019-03-06T03:55:43.814Z,1.00
2019-03-06T03:58:13.863Z,1.00
2019-03-06T04:00:44.185Z,1.00
2019-03-06T04:03:15.224Z,0.80
2019-03-06T04:05:45.590Z,1.00
2019-03-06T04:08:16.614Z,0.60
2019-03-06T04:10:46.673Z,1.00
2019-03-06T04:13:16.710Z,1.00
2019-03-06T04:15:46.835Z,1.00
2019-03-06T04:18:16.860Z,0.00
2019-03-06T04:20:46.930Z,1.80
2019-03-06T04:23:16.977Z,0.00
2019-03-06T04:25:47.038Z,0.00
2019-03-06T04:28:17.043Z,0.00
2019-03-06T04:30:47.098Z,0.20
2019-03-06T04:33:17.083Z,0.00
2019-03-06T04:35:47.560Z,1.00
2019-03-06T04:38:17.533Z,0.00
2019-03-06T04:40:47.557Z,2.20
2019-03-06T04:43:17.564Z,0.00
2019-03-06T04:45:47.619Z,1.00
2019-03-06T04:48:17.615Z,1.00
2019-03-06T04:50:47.661Z,0.00
2019-03-06T04:53:17.653Z,0.00
2019-03-06T04:55:47.672Z,1.00
2019-03-06T04:58:17.674Z,1.00
2019-03-06T05:00:47.731Z,1.00
2019-03-06T05:03:17.705Z,0.00
2019-03-06T05:05:47.785Z,0.80
2019-03-06T05:08:17.770Z,1.00
2019-03-06T05:10:48.118Z,0.00
2019-03-06T05:13:18.144Z,0.00
2019-03-06T05:15:48.604Z,0.40
2019-03-06T05:18:36.702Z,0.40
2019-03-06T05:21:06.785Z,5.20
2019-03-06T05:23:36.794Z,3.80
2019-03-06T05:26:07.021Z,2.20
2019-03-06T05:28:37.002Z,3.40
2019-03-06T05:31:07.178Z,4.40
2019-03-06T05:33:37.289Z,4.80
2019-03-06T05:36:16.617Z,2.20
2019-03-06T05:39:04.837Z,6.00
2019-03-06T05:41:36.547Z,3.60
2019-03-06T05:44:06.791Z,3.80
2019-03-06T05:46:36.816Z,4.00
2019-03-06T05:49:06.908Z,3.60
2019-03-06T05:51:36.971Z,5.60
2019-03-06T05:54:08.125Z,3.60
2019-03-06T05:56:38.141Z,4.00
2019-03-06T05:59:08.065Z,11.60
2019-03-06T06:01:38.118Z,8.20
2019-03-06T06:04:08.160Z,8.60
2019-03-06T06:06:38.193Z,6.40
2019-03-06T06:09:08.176Z,3.80
2019-03-06T06:11:38.218Z,5.60
2019-03-06T06:14:08.222Z,6.00
2019-03-06T06:16:38.254Z,1.00
2019-03-06T06:19:11.170Z,4.80
2019-03-06T06:21:42.756Z,4.20
2019-03-06T06:24:12.843Z,4.20
2019-03-06T06:26:42.914Z,5.00
2019-03-06T06:29:12.881Z,3.20
2019-03-06T06:31:43.211Z,2.40
2019-03-06T06:34:13.288Z,2.00
2019-03-06T06:36:43.298Z,2.00
2019-03-06T06:39:13.342Z,1.60
2019-03-06T06:41:43.610Z,1.20
2019-03-06T06:44:13.604Z,1.80
2019-03-06T06:46:43.941Z,1.00
2019-03-06T06:49:13.906Z,0.00
2019-03-06T06:51:47.188Z,1.00
2019-03-06T06:54:36.920Z,2.40
2019-03-06T06:57:12.897Z,2.00
2019-03-06T07:00:01.068Z,1.80
2019-03-06T07:03:08.478Z,1.00
2019-03-06T07:05:40.085Z,2.80
2019-03-06T07:08:11.676Z,1.00
2019-03-06T07:10:59.806Z,0.00
2019-03-06T07:13:31.469Z,1.00
2019-03-06T07:16:03.005Z,1.00
2019-03-06T07:18:50.877Z,0.00
2019-03-06T07:21:22.691Z,1.00
2019-03-06T07:24:10.699Z,1.00
2019-03-06T07:26:48.282Z,1.00
2019-03-06T07:29:36.432Z,1.80
2019-03-06T07:32:08.643Z,9.60
2019-03-06T07:34:49.401Z,6.80
2019-03-06T07:37:28.351Z,1.20
2019-03-06T07:39:53.461Z,4.20
2019-03-06T07:42:28.042Z,8.00
2019-03-06T07:45:40.954Z,4.20
2019-03-06T07:48:12.888Z,5.60
2019-03-06T07:51:14.066Z,2.00
2019-03-06T07:53:50.643Z,2.00
2019-03-06T07:56:22.948Z,3.00
2019-03-06T07:58:54.334Z,4.20
2019-03-06T08:01:26.923Z,4.60
2019-03-06T08:04:00.165Z,4.00
2019-03-06T08:06:30.556Z,1.60
2019-03-06T08:09:00.591Z,1.00
2019-03-06T08:11:33.922Z,1.20
2019-03-06T08:14:08.450Z,3.00
2019-03-06T08:16:40.380Z,2.00
2019-03-06T08:19:14.700Z,2.00
2019-03-06T08:21:55.377Z,2.00
2019-03-06T08:24:43.255Z,4.20
2019-03-06T08:27:13.313Z,3.80
2019-03-06T08:29:43.502Z,3.20
2019-03-06T08:32:15.086Z,4.60
2019-03-06T08:34:45.096Z,3.20
2019-03-06T08:37:15.129Z,2.00
2019-03-06T08:39:45.104Z,2.60
2019-03-06T08:42:15.363Z,4.60
2019-03-06T08:44:45.450Z,3.20
2019-03-06T08:47:17.088Z,2.40
2019-03-06T08:49:48.658Z,2.00
2019-03-06T08:52:26.223Z,2.00
2019-03-06T08:54:57.790Z,3.20
2019-03-06T08:57:32.160Z,2.00
2019-03-06T09:00:22.655Z,6.20
2019-03-06T09:02:57.155Z,2.60
2019-03-06T09:05:31.687Z,1.00
2019-03-06T09:08:05.911Z,1.60
2019-03-06T09:10:43.468Z,1.00
2019-03-06T09:13:15.224Z,2.00
2019-03-06T09:16:03.008Z,0.80
2019-03-06T09:18:37.642Z,1.00
2019-03-06T09:21:09.576Z,1.00
2019-03-06T09:23:57.696Z,1.00
2019-03-06T09:26:34.985Z,3.20
2019-03-06T09:29:22.986Z,2.20
2019-03-06T09:31:54.588Z,0.20
2019-03-06T09:34:35.461Z,3.00
2019-03-06T09:37:12.841Z,2.20
2019-03-06T09:39:44.375Z,1.00
2019-03-06T09:42:21.573Z,1.20
2019-03-06T09:44:54.288Z,1.00
2019-03-06T09:47:27.001Z,1.00
2019-03-06T09:50:07.709Z,1.00
2019-03-06T09:52:42.569Z,1.00
2019-03-06T09:55:30.834Z,1.00
2019-03-06T09:58:05.259Z,0.00
2019-03-06T10:00:53.337Z,0.80
2019-03-06T10:03:30.737Z,0.20
2019-03-06T10:06:05.598Z,0.00
2019-03-06T10:08:38.716Z,0.20
2019-03-06T10:11:10.318Z,0.40
2019-03-06T10:13:47.782Z,0.00
2019-03-06T10:16:23.238Z,1.00
2019-03-06T10:19:11.736Z,0.00
2019-03-06T10:21:41.770Z,1.00
2019-03-06T10:24:11.723Z,0.80
2019-03-06T10:26:41.737Z,0.40
2019-03-06T10:29:11.709Z,1.00
2019-03-06T10:31:41.699Z,1.00
2019-03-06T10:34:11.693Z,0.00
2019-03-06T10:36:41.678Z,2.00
2019-03-06T10:39:14.639Z,2.00
2019-03-06T10:41:44.648Z,0.60
2019-03-06T10:44:14.978Z,1.00
2019-03-06T10:46:44.964Z,1.00
2019-03-06T10:49:14.968Z,1.20
2019-03-06T10:51:44.938Z,1.00
2019-03-06T10:54:15.044Z,1.80
2019-03-06T10:56:46.316Z,0.60
2019-03-06T10:59:16.294Z,0.40
2019-03-06T11:01:46.333Z,2.00
2019-03-06T11:04:34.068Z,1.00
2019-03-06T11:07:06.689Z,1.40
2019-03-06T11:09:37.067Z,0.20
2019-03-06T11:12:07.740Z,1.00
2019-03-06T11:14:38.413Z,0.80
2019-03-06T11:17:08.561Z,2.00
2019-03-06T11:19:38.951Z,0.40
2019-03-06T11:22:09.314Z,1.00
2019-03-06T11:24:39.302Z,0.00
2019-03-06T11:27:10.320Z,0.80
2019-03-06T11:29:41.279Z,0.00
2019-03-06T11:32:11.631Z,0.20
2019-03-06T11:34:41.711Z,1.00
2019-03-06T11:37:12.035Z,1.00
2019-03-06T11:39:42.151Z,0.00
2019-03-06T11:42:12.398Z,0.00
2019-03-06T11:44:42.368Z,0.80
2019-03-06T11:47:12.576Z,1.00
2019-03-06T11:49:42.714Z,3.00
2019-03-06T11:52:12.729Z,0.20
2019-03-06T11:54:42.701Z,3.00
2019-03-06T11:57:12.861Z,0.60
2019-03-06T11:59:42.831Z,1.00
2019-03-06T12:02:13.457Z,1.00
2019-03-06T12:04:43.443Z,1.80
2019-03-06T12:07:13.487Z,1.00
2019-03-06T12:09:43.457Z,1.00
2019-03-06T12:12:13.549Z,1.00
2019-03-06T12:14:44.938Z,1.40
2019-03-06T12:17:16.257Z,1.00
2019-03-06T12:19:46.228Z,0.00
2019-03-06T12:22:16.255Z,0.60
2019-03-06T12:24:46.230Z,1.00
2019-03-06T12:27:16.260Z,1.00
2019-03-06T12:29:46.257Z,1.00
2019-03-06T12:32:16.276Z,1.00
2019-03-06T12:34:46.258Z,1.00
2019-03-06T12:37:16.257Z,1.00
2019-03-06T12:39:46.237Z,1.00
2019-03-06T12:42:17.273Z,1.80
2019-03-06T12:44:47.280Z,0.80
2019-03-06T12:47:17.397Z,1.00
2019-03-06T12:49:47.378Z,0.80
2019-03-06T12:52:18.492Z,3.00
2019-03-06T12:54:48.575Z,1.40
2019-03-06T12:57:18.608Z,3.40
2019-03-06T12:59:48.593Z,1.80
2019-03-06T13:02:18.609Z,1.00
2019-03-06T13:04:48.616Z,3.80
2019-03-06T13:07:18.649Z,3.80
2019-03-06T13:09:48.930Z,3.80
2019-03-06T13:12:18.996Z,4.00
2019-03-06T13:14:49.039Z,4.40
2019-03-06T13:17:19.164Z,1.00
2019-03-06T13:19:49.198Z,5.40
2019-03-06T13:22:19.218Z,0.80
2019-03-06T13:24:49.259Z,2.60
2019-03-06T13:27:19.248Z,3.00
2019-03-06T13:29:49.357Z,1.80
2019-03-06T13:32:20.837Z,4.00
2019-03-06T13:34:52.294Z,3.00
2019-03-06T13:37:22.467Z,1.40
2019-03-06T13:39:52.495Z,3.00
2019-03-06T13:42:22.501Z,3.60
2019-03-06T13:44:52.548Z,5.20
2019-03-06T13:47:22.550Z,3.00
2019-03-06T13:49:52.540Z,4.00
2019-03-06T13:52:22.578Z,6.20
2019-03-06T13:54:52.619Z,4.60
2019-03-06T13:57:22.598Z,5.20
2019-03-06T13:59:52.657Z,4.00
2019-03-06T14:02:22.637Z,4.00
2019-03-06T14:04:52.879Z,4.00
2019-03-06T14:07:22.853Z,3.80
2019-03-06T14:09:52.867Z,3.40
2019-03-06T14:12:22.849Z,4.00
2019-03-06T14:14:52.860Z,5.60
2019-03-06T14:17:22.868Z,1.80
2019-03-06T14:19:52.852Z,4.80
2019-03-06T14:22:23.339Z,4.40
2019-03-06T14:24:53.371Z,3.80
2019-03-06T14:27:23.367Z,5.20
2019-03-06T14:29:53.401Z,6.00
2019-03-06T14:32:23.668Z,3.00
2019-03-06T14:34:53.723Z,3.60
2019-03-06T14:37:23.689Z,4.00
2019-03-06T14:39:53.764Z,5.60
2019-03-06T14:42:23.849Z,3.40
2019-03-06T14:44:53.877Z,1.80
2019-03-06T14:47:23.865Z,3.60
2019-03-06T14:49:53.861Z,6.00
2019-03-06T14:52:23.845Z,5.20
2019-03-06T14:54:53.844Z,4.00
2019-03-06T14:57:23.827Z,4.00
2019-03-06T14:59:54.200Z,3.40
2019-03-06T15:02:24.221Z,2.20
2019-03-06T15:04:54.245Z,6.40
2019-03-06T15:07:24.254Z,1.80
2019-03-06T15:09:54.587Z,6.00
2019-03-06T15:12:24.578Z,5.20
2019-03-06T15:14:54.598Z,3.20
2019-03-06T15:17:24.599Z,4.00
2019-03-06T15:19:54.645Z,5.20
2019-03-06T15:22:24.640Z,6.00
2019-03-06T15:24:54.658Z,3.80
2019-03-06T15:27:24.965Z,3.00
2019-03-06T15:29:55.052Z,0.00
2019-03-06T15:32:25.037Z,3.00
2019-03-06T15:34:55.021Z,3.60
2019-03-06T15:37:25.090Z,3.20
2019-03-06T15:39:55.284Z,2.60
2019-03-06T15:42:25.614Z,2.60
2019-03-06T15:44:55.581Z,4.00
2019-03-06T15:47:33.457Z,3.20
2019-03-06T15:49:57.267Z,3.40
2019-03-06T15:52:27.343Z,3.00
2019-03-06T15:54:57.341Z,3.40
2019-03-06T15:57:27.358Z,3.00
2019-03-06T15:59:57.364Z,4.40
2019-03-06T16:02:28.833Z,3.60
2019-03-06T16:04:58.830Z,2.60
2019-03-06T16:07:28.993Z,1.00
2019-03-06T16:09:58.969Z,3.00
2019-03-06T16:12:29.037Z,4.00
2019-03-06T16:14:59.046Z,1.80
2019-03-06T16:17:29.047Z,3.00
2019-03-06T16:19:59.360Z,3.00
2019-03-06T16:22:29.394Z,3.60
2019-03-06T16:24:59.395Z,4.00
2019-03-06T16:27:29.523Z,2.60
2019-03-06T16:29:59.551Z,3.40
2019-03-06T16:32:30.061Z,4.00
2019-03-06T16:35:00.050Z,4.00
2019-03-06T16:37:30.338Z,2.60
2019-03-06T16:40:00.344Z,3.20
2019-03-06T16:42:30.363Z,6.60
2019-03-06T16:45:00.428Z,3.00
2019-03-06T16:47:30.501Z,3.60
2019-03-06T16:50:00.478Z,4.00
2019-03-06T16:52:30.528Z,4.00
2019-03-06T16:55:00.507Z,1.80
2019-03-06T16:57:31.827Z,9.80
2019-03-06T17:00:02.294Z,8.00
2019-03-06T17:02:32.956Z,3.40
2019-03-06T17:05:03.067Z,3.80
2019-03-06T17:07:33.303Z,1.00
2019-03-06T17:10:03.382Z,3.80
2019-03-06T17:12:34.075Z,1.40
2019-03-06T17:15:04.569Z,3.00
2019-03-06T17:17:34.715Z,3.20
2019-03-06T17:20:06.316Z,2.60
2019-03-06T17:22:36.645Z,1.80
2019-03-06T17:25:06.942Z,4.00
2019-03-06T17:27:37.393Z,3.80
2019-03-06T17:30:10.319Z,3.00
2019-03-06T17:32:59.515Z,3.40
2019-03-06T17:35:31.292Z,3.00
2019-03-06T17:38:01.543Z,1.00
2019-03-06T17:40:31.820Z,0.00
2019-03-06T17:43:02.093Z,1.00
2019-03-06T17:45:32.094Z,3.20
2019-03-06T17:48:02.733Z,3.00
2019-03-06T17:50:32.776Z,2.20
2019-03-06T17:53:02.791Z,3.60
2019-03-06T17:55:32.992Z,3.80
2019-03-06T17:58:03.031Z,4.80
2019-03-06T18:00:37.509Z,1.00
2019-03-06T18:03:08.768Z,3.00
2019-03-06T18:05:38.801Z,3.00
2019-03-06T18:08:09.041Z,0.80
2019-03-06T18:10:39.053Z,3.20
2019-03-06T18:13:09.077Z,1.40
2019-03-06T18:15:39.064Z,3.40
2019-03-06T18:18:09.125Z,3.00
2019-03-06T18:20:40.797Z,3.00
2019-03-06T18:23:10.849Z,1.00
2019-03-06T18:25:40.845Z,3.60
2019-03-06T18:28:11.002Z,3.00
2019-03-06T18:30:40.988Z,1.80
2019-03-06T18:33:11.038Z,2.60
2019-03-06T18:35:41.046Z,2.20
2019-03-06T18:38:11.038Z,3.60
2019-03-06T18:40:41.442Z,1.00
2019-03-06T18:43:11.450Z,2.80
2019-03-06T18:45:41.503Z,3.20
2019-03-06T18:48:11.558Z,3.00
2019-03-06T18:50:41.541Z,0.80
2019-03-06T18:53:11.577Z,3.00
2019-03-06T18:55:42.092Z,0.00
2019-03-06T18:58:13.075Z,1.40
2019-03-06T19:00:43.257Z,4.00
2019-03-06T19:03:13.294Z,3.40
2019-03-06T19:05:43.355Z,2.25
2019-03-06T19:08:13.426Z,1.40
2019-03-06T19:10:44.184Z,2.60
2019-03-06T19:13:14.519Z,3.00
2019-03-06T19:15:44.659Z,6.00
2019-03-06T19:18:14.750Z,2.60
2019-03-06T19:20:44.785Z,3.60
2019-03-06T19:23:15.198Z,1.00
2019-03-06T19:25:45.244Z,4.40
2019-03-06T19:28:15.392Z,3.60
2019-03-06T19:30:45.470Z,3.00
2019-03-06T19:33:15.466Z,3.00
2019-03-06T19:35:45.554Z,4.00
2019-03-06T19:38:15.541Z,3.00
2019-03-06T19:40:48.693Z,5.20
2019-03-06T19:43:18.787Z,3.60
2019-03-06T19:45:48.834Z,4.00
2019-03-06T19:48:18.875Z,7.00
2019-03-06T19:50:49.269Z,3.20
2019-03-06T19:53:19.319Z,4.00
2019-03-06T19:55:49.586Z,3.00
2019-03-06T19:58:19.585Z,6.00
2019-03-06T20:00:49.661Z,4.80
2019-03-06T20:03:21.338Z,3.50
2019-03-06T20:05:51.383Z,2.20
2019-03-06T20:08:21.713Z,1.40
2019-03-06T20:10:51.898Z,3.60
2019-03-06T20:13:21.931Z,2.60
2019-03-06T20:15:51.950Z,3.40
2019-03-06T20:18:22.277Z,3.00
2019-03-06T20:20:52.379Z,3.00
2019-03-06T20:23:22.530Z,3.00
2019-03-06T20:25:52.794Z,1.80
2019-03-06T20:28:22.787Z,4.80
2019-03-06T20:30:52.817Z,0.40
2019-03-06T20:33:24.233Z,1.80
2019-03-06T20:35:55.269Z,3.00
2019-03-06T20:38:25.295Z,1.40
2019-03-06T20:40:55.328Z,3.40
2019-03-06T20:43:25.316Z,1.00
2019-03-06T20:45:56.508Z,1.00
2019-03-06T20:48:26.532Z,3.20
2019-03-06T20:50:56.615Z,6.60
2019-03-06T20:53:26.694Z,3.80
2019-03-06T20:55:57.751Z,1.00
2019-03-06T20:58:27.826Z,1.00
2019-03-06T21:00:57.881Z,2.60
2019-03-06T21:03:28.291Z,3.40
2019-03-06T21:05:59.448Z,2.20
2019-03-06T21:08:29.456Z,3.80
2019-03-06T21:10:59.696Z,3.40
2019-03-06T21:13:29.680Z,4.40
2019-03-06T21:16:00.853Z,4.00
2019-03-06T21:18:30.864Z,2.60
2019-03-06T21:21:01.052Z,5.20
2019-03-06T21:23:32.288Z,4.40
2019-03-06T21:26:02.343Z,6.20
2019-03-06T21:28:32.344Z,4.00
2019-03-06T21:31:03.983Z,5.20
2019-03-06T21:33:34.095Z,1.00
2019-03-06T21:36:04.131Z,3.00
2019-03-06T21:38:34.116Z,3.00
2019-03-06T21:41:04.160Z,3.20
2019-03-06T21:43:34.141Z,6.00
2019-03-06T21:46:04.224Z,4.40
2019-03-06T21:48:34.537Z,4.40
2019-03-06T21:51:05.416Z,7.20
2019-03-06T21:53:35.656Z,3.80
2019-03-06T21:56:05.688Z,4.80
2019-03-06T21:58:35.718Z,7.00
2019-03-06T22:01:05.868Z,7.00
2019-03-06T22:03:36.057Z,7.00
2019-03-06T22:06:06.141Z,6.00
2019-03-06T22:08:36.136Z,3.20
2019-03-06T22:11:07.824Z,4.40
2019-03-06T22:13:37.840Z,2.20
2019-03-06T22:16:08.294Z,5.20
2019-03-06T22:18:38.306Z,5.60
2019-03-06T22:21:08.371Z,6.00
2019-03-06T22:23:38.380Z,4.00
2019-03-06T22:26:08.433Z,6.80
2019-03-06T22:28:38.396Z,7.80
2019-03-06T22:31:08.441Z,6.40
2019-03-06T22:33:38.496Z,6.60
2019-03-06T22:36:08.553Z,5.20
2019-03-06T22:38:38.572Z,4.00
2019-03-06T22:41:08.595Z,5.60
2019-03-06T22:43:38.654Z,6.80
2019-03-06T22:46:08.668Z,9.40
2019-03-06T22:48:38.657Z,3.20
2019-03-06T22:51:08.731Z,7.00
2019-03-06T22:53:38.718Z,5.60
2019-03-06T22:56:08.761Z,5.60
2019-03-06T22:58:38.784Z,6.60
2019-03-06T23:01:11.723Z,5.40
2019-03-06T23:03:41.854Z,3.00
2019-03-06T23:06:11.887Z,4.00
2019-03-06T23:08:41.886Z,6.40
2019-03-06T23:11:12.089Z,10.00
2019-03-06T23:13:43.794Z,10.20
2019-03-06T23:16:13.861Z,8.20
2019-03-06T23:18:43.852Z,5.60
2019-03-06T23:21:13.907Z,4.40
2019-03-06T23:23:44.088Z,6.00
2019-03-06T23:26:14.109Z,7.20
2019-03-06T23:28:44.110Z,8.40
2019-03-06T23:31:14.188Z,9.00
2019-03-06T23:33:45.302Z,9.00
2019-03-06T23:36:15.921Z,9.00
2019-03-06T23:38:45.961Z,6.00
2019-03-06T23:41:16.051Z,9.00
2019-03-06T23:43:46.044Z,3.20
2019-03-06T23:46:16.086Z,6.00
2019-03-06T23:48:47.167Z,6.80
2019-03-06T23:51:18.763Z,4.00
2019-03-06T23:53:52.661Z,10.80
2019-03-06T23:56:22.815Z,3.20
2019-03-06T23:58:52.817Z,6.00
